createdAt,value
2019-03-06T00:04:10.640Z,83.70
2019-03-06T00:06:40.139Z,84.25
2019-03-06T00:09:09.812Z,84.61
2019-03-06T00:11:41.078Z,84.87
2019-03-06T00:14:10.448Z,85.02
2019-03-06T00:16:39.806Z,84.95
2019-03-06T00:19:09.345Z,85.06
2019-03-06T00:21:38.699Z,85.13
2019-03-06T00:24:08.253Z,85.19
2019-03-06T00:26:39.264Z,85.16
2019-03-06T00:29:08.622Z,85.39
2019-03-06T00:31:58.762Z,85.39
2019-03-06T00:34:28.429Z,85.56
2019-03-06T00:36:57.786Z,85.71
2019-03-06T00:42:06.775Z,85.68
2019-03-06T00:44:36.410Z,85.67
2019-03-06T00:47:05.753Z,85.82
2019-03-06T00:49:36.238Z,85.75
2019-03-06T00:52:25.589Z,85.65
2019-03-06T00:54:55.252Z,85.60
2019-03-06T00:57:24.822Z,85.64
2019-03-06T00:59:54.484Z,85.62
2019-03-06T01:02:23.825Z,85.56
2019-03-06T01:04:53.477Z,85.51
2019-03-06T01:07:22.829Z,85.56
2019-03-06T01:09:52.517Z,85.77
2019-03-06T01:12:21.860Z,85.95
2019-03-06T01:14:51.439Z,86.08
2019-03-06T01:17:21.084Z,86.11
2019-03-06T01:19:50.570Z,85.96
2019-03-06T01:22:19.992Z,85.87
2019-03-06T01:24:49.550Z,85.75
2019-03-06T01:27:18.897Z,85.42
2019-03-06T01:29:48.901Z,85.27
2019-03-06T01:32:18.548Z,85.16
2019-03-06T01:38:02.836Z,85.42
2019-03-06T01:40:53.310Z,86.08
2019-03-06T01:43:42.086Z,86.15
2019-03-06T01:46:11.565Z,86.37
2019-03-06T01:48:40.932Z,86.66
2019-03-06T01:51:11.761Z,86.88
2019-03-06T01:53:46.840Z,87.16
2019-03-06T01:56:16.185Z,87.43
2019-03-06T01:58:45.751Z,87.50
2019-03-06T02:01:16.076Z,87.37
2019-03-06T02:03:45.732Z,87.45
2019-03-06T02:06:16.122Z,87.47
2019-03-06T02:08:45.729Z,87.51
2019-03-06T02:11:16.058Z,87.75
2019-03-06T02:13:45.706Z,87.91
2019-03-06T02:16:16.098Z,88.00
2019-03-06T02:18:47.172Z,88.16
2019-03-06T02:21:16.813Z,88.36
2019-03-06T02:23:46.184Z,88.49
2019-03-06T02:26:16.117Z,88.46
2019-03-06T02:28:45.780Z,88.43
2019-03-06T02:31:17.033Z,88.35
2019-03-06T02:33:46.704Z,88.46
2019-03-06T02:36:16.270Z,88.55
2019-03-06T02:38:46.067Z,88.63
2019-03-06T02:41:16.398Z,88.88
2019-03-06T02:43:45.982Z,88.94
2019-03-06T02:46:16.203Z,88.94
2019-03-06T02:48:45.866Z,89.03
2019-03-06T02:51:16.525Z,89.15
2019-03-06T02:53:45.873Z,89.30
2019-03-06T02:56:17.493Z,89.44
2019-03-06T02:59:06.119Z,89.28
2019-03-06T03:01:54.844Z,89.20
2019-03-06T03:10:02.947Z,88.54
2019-03-06T03:12:32.586Z,88.12
2019-03-06T03:15:02.018Z,88.12
2019-03-06T03:17:52.189Z,87.86
2019-03-06T03:20:21.847Z,87.78
2019-03-06T03:22:51.197Z,87.72
2019-03-06T03:25:20.880Z,87.68
2019-03-06T03:27:50.249Z,87.67
2019-03-06T03:30:20.233Z,87.61
2019-03-06T03:32:49.569Z,87.53
2019-03-06T03:35:19.650Z,87.57
2019-03-06T03:37:49.242Z,87.52
2019-03-06T03:40:18.891Z,87.62
2019-03-06T03:42:48.529Z,87.40
2019-03-06T03:45:18.558Z,87.42
2019-03-06T03:47:48.135Z,87.49
2019-03-06T03:50:17.513Z,87.61
2019-03-06T03:52:47.022Z,87.63
2019-03-06T03:58:50.914Z,87.57
2019-03-06T04:01:20.329Z,87.50
2019-03-06T04:03:50.318Z,87.51
2019-03-06T04:06:27.123Z,87.44
2019-03-06T04:08:56.462Z,87.49
2019-03-06T04:11:26.126Z,87.84
2019-03-06T04:13:55.488Z,88.19
2019-03-06T04:16:25.414Z,88.26
2019-03-06T04:18:55.051Z,88.40
2019-03-06T04:21:26.439Z,88.77
2019-03-06T04:23:55.791Z,89.43
2019-03-06T04:26:25.448Z,89.84
2019-03-06T04:28:55.100Z,89.89
2019-03-06T04:31:24.466Z,90.26
2019-03-06T04:33:54.142Z,90.60
2019-03-06T04:36:24.139Z,90.78
2019-03-06T04:38:53.491Z,90.90
2019-03-06T04:41:23.334Z,91.29
2019-03-06T04:43:53.613Z,91.41
2019-03-06T04:46:23.130Z,91.40
2019-03-06T04:48:52.480Z,91.41
2019-03-06T04:51:22.451Z,91.32
2019-03-06T04:53:53.300Z,91.57
2019-03-06T04:56:22.953Z,91.77
2019-03-06T04:58:52.302Z,92.00
2019-03-06T05:01:21.665Z,92.21
2019-03-06T05:04:10.742Z,92.31
2019-03-06T05:06:50.707Z,92.19
2019-03-06T05:09:20.367Z,92.19
2019-03-06T05:11:49.721Z,92.43
2019-03-06T05:14:19.383Z,92.41
2019-03-06T05:19:58.152Z,92.44
2019-03-06T05:22:27.570Z,92.43
2019-03-06T05:24:56.927Z,92.44
2019-03-06T05:27:27.909Z,92.42
2019-03-06T05:29:57.417Z,92.44
2019-03-06T05:32:57.456Z,92.61
2019-03-06T05:36:05.532Z,92.71
2019-03-06T05:41:55.570Z,92.78
2019-03-06T05:44:24.948Z,92.94
2019-03-06T05:47:04.592Z,93.16
2019-03-06T05:49:34.261Z,93.13
2019-03-06T05:52:03.619Z,93.10
2019-03-06T05:54:33.612Z,93.41
2019-03-06T05:57:23.767Z,93.54
2019-03-06T05:59:53.474Z,93.62
2019-03-06T06:02:22.833Z,93.65
2019-03-06T06:04:52.494Z,93.63
2019-03-06T06:07:21.845Z,93.76
2019-03-06T06:09:51.514Z,93.74
2019-03-06T06:12:20.866Z,93.74
2019-03-06T06:14:50.758Z,93.86
2019-03-06T06:17:20.758Z,93.91
2019-03-06T06:19:50.131Z,93.98
2019-03-06T06:25:16.585Z,94.16
2019-03-06T06:27:45.938Z,94.16
2019-03-06T06:30:17.392Z,93.98
2019-03-06T06:32:46.751Z,93.95
2019-03-06T06:35:16.959Z,93.92
2019-03-06T06:37:46.609Z,93.96
2019-03-06T06:40:16.997Z,94.07
2019-03-06T06:42:46.593Z,94.16
2019-03-06T06:48:37.812Z,94.32
2019-03-06T06:51:37.974Z,94.33
2019-03-06T06:58:12.565Z,94.62
2019-03-06T07:01:12.874Z,94.84
2019-03-06T07:04:40.374Z,94.82
2019-03-06T07:07:28.857Z,94.78
2019-03-06T07:10:17.650Z,94.70
2019-03-06T07:13:06.147Z,94.60
2019-03-06T07:15:54.771Z,94.45
2019-03-06T07:18:43.554Z,94.50
2019-03-06T07:21:32.303Z,94.49
2019-03-06T07:24:21.006Z,94.37
2019-03-06T07:34:02.875Z,93.71
2019-03-06T07:36:51.956Z,93.34
2019-03-06T07:42:50.149Z,92.89
2019-03-06T07:45:58.359Z,92.75
2019-03-06T07:52:12.781Z,92.55
2019-03-06T07:55:01.295Z,92.58
2019-03-06T08:03:43.926Z,92.04
2019-03-06T08:06:13.309Z,91.39
2019-03-06T08:08:53.019Z,90.76
2019-03-06T08:14:50.653Z,90.57
2019-03-06T08:17:39.483Z,90.41
2019-03-06T08:20:28.186Z,90.13
2019-03-06T08:23:16.986Z,90.12
2019-03-06T08:28:41.950Z,89.72
2019-03-06T08:33:59.162Z,89.82
2019-03-06T08:39:45.411Z,89.74
2019-03-06T08:42:15.112Z,90.21
2019-03-06T08:44:54.939Z,89.94
2019-03-06T08:56:52.734Z,88.64
2019-03-06T08:59:41.485Z,88.88
2019-03-06T09:02:30.314Z,88.50
2019-03-06T09:08:46.185Z,87.59
2019-03-06T09:11:34.689Z,88.02
2019-03-06T09:20:00.333Z,87.54
2019-03-06T09:22:48.775Z,87.23
2019-03-06T09:28:16.404Z,86.23
2019-03-06T09:33:45.897Z,86.07
2019-03-06T09:36:34.649Z,85.73
2019-03-06T09:42:57.363Z,85.47
2019-03-06T09:45:45.940Z,84.63
2019-03-06T09:51:14.839Z,84.38
2019-03-06T09:57:30.604Z,84.14
2019-03-06T10:00:38.840Z,83.00
2019-03-06T10:03:27.481Z,83.00
2019-03-06T10:06:15.977Z,82.80
2019-03-06T10:09:04.480Z,82.22
2019-03-06T10:11:54.592Z,80.39
2019-03-06T10:14:43.104Z,80.68
2019-03-06T10:21:00.414Z,78.50
2019-03-06T10:23:29.770Z,78.08
2019-03-06T10:25:59.505Z,78.09
2019-03-06T10:28:28.922Z,77.90
2019-03-06T10:31:02.311Z,78.03
2019-03-06T10:33:37.784Z,77.74
2019-03-06T10:36:07.460Z,77.60
2019-03-06T10:38:47.260Z,77.61
2019-03-06T10:41:17.803Z,77.74
2019-03-06T10:43:49.647Z,77.88
2019-03-06T10:46:24.539Z,78.05
2019-03-06T10:48:53.908Z,77.96
2019-03-06T10:51:23.781Z,77.72
2019-03-06T10:53:53.470Z,78.23
2019-03-06T10:56:30.120Z,78.46
2019-03-06T11:01:54.771Z,77.27
2019-03-06T11:07:02.745Z,76.28
2019-03-06T11:09:32.794Z,76.76
2019-03-06T11:15:55.945Z,75.77
2019-03-06T11:18:44.218Z,73.69
2019-03-06T11:21:21.947Z,73.69
2019-03-06T11:23:51.592Z,71.68
2019-03-06T11:29:01.902Z,72.82
2019-03-06T11:34:51.258Z,71.36
2019-03-06T11:37:51.764Z,70.69
2019-03-06T11:40:52.049Z,70.20
2019-03-06T11:43:21.705Z,70.37
2019-03-06T11:45:51.412Z,69.84
2019-03-06T11:48:21.025Z,69.11
2019-03-06T11:50:52.015Z,70.02
2019-03-06T11:56:56.752Z,69.12
2019-03-06T11:59:26.174Z,68.63
2019-03-06T12:01:55.877Z,67.92
2019-03-06T12:04:25.310Z,67.24
2019-03-06T12:07:02.043Z,67.29
2019-03-06T12:13:36.522Z,65.66
2019-03-06T12:16:18.936Z,66.23
2019-03-06T12:18:49.243Z,66.65
2019-03-06T12:21:18.904Z,65.83
2019-03-06T12:23:48.258Z,65.45
2019-03-06T12:26:18.182Z,66.04
2019-03-06T12:28:47.797Z,66.21
2019-03-06T12:31:18.332Z,65.07
2019-03-06T12:33:47.872Z,65.82
2019-03-06T12:36:18.199Z,65.52
2019-03-06T12:38:47.547Z,65.99
2019-03-06T12:41:18.540Z,65.34
2019-03-06T12:43:47.948Z,65.28
2019-03-06T12:46:48.801Z,64.67
2019-03-06T12:49:18.315Z,63.47
2019-03-06T12:51:54.364Z,63.47
2019-03-06T12:54:27.849Z,63.26
2019-03-06T12:56:57.228Z,62.15
2019-03-06T12:59:26.895Z,62.63
2019-03-06T13:01:56.253Z,62.62
2019-03-06T13:04:25.903Z,62.31
2019-03-06T13:06:55.280Z,62.16
2019-03-06T13:09:26.298Z,62.38
2019-03-06T13:11:55.668Z,62.58
2019-03-06T13:14:46.423Z,63.11
2019-03-06T13:17:16.008Z,61.73
2019-03-06T13:19:45.640Z,61.87
2019-03-06T13:22:15.058Z,62.84
2019-03-06T13:24:44.585Z,62.95
2019-03-06T13:27:14.206Z,63.36
2019-03-06T13:29:45.520Z,62.52
2019-03-06T13:38:38.361Z,64.02
2019-03-06T13:41:07.732Z,62.04
2019-03-06T13:43:37.525Z,62.74
2019-03-06T13:49:25.491Z,61.53
2019-03-06T13:51:55.148Z,61.46
2019-03-06T13:54:24.799Z,61.63
2019-03-06T13:56:54.307Z,61.85
2019-03-06T13:59:23.654Z,61.41
2019-03-06T14:01:54.669Z,61.71
2019-03-06T14:04:24.318Z,60.82
2019-03-06T14:06:53.685Z,60.82
2019-03-06T14:09:23.686Z,60.11
2019-03-06T14:11:53.595Z,61.08
2019-03-06T14:14:23.511Z,61.02
2019-03-06T14:16:53.176Z,60.58
2019-03-06T14:19:22.548Z,60.46
2019-03-06T14:21:52.198Z,61.13
2019-03-06T14:24:42.347Z,61.14
2019-03-06T14:27:11.778Z,60.62
2019-03-06T14:29:41.402Z,61.04
2019-03-06T14:32:14.586Z,61.02
2019-03-06T14:35:01.575Z,61.04
2019-03-06T14:37:44.914Z,60.90
2019-03-06T14:43:34.737Z,59.60
2019-03-06T14:46:04.513Z,59.88
2019-03-06T14:48:33.986Z,59.76
2019-03-06T14:51:03.362Z,60.40
2019-03-06T14:53:32.804Z,61.01
2019-03-06T14:56:02.402Z,60.36
2019-03-06T14:58:32.343Z,60.71
2019-03-06T15:01:22.640Z,61.26
2019-03-06T15:03:52.026Z,60.37
2019-03-06T15:09:50.090Z,60.94
2019-03-06T15:12:19.743Z,60.74
2019-03-06T15:18:28.690Z,60.63
2019-03-06T15:20:58.328Z,59.09
2019-03-06T15:23:27.993Z,59.30
2019-03-06T15:29:06.730Z,59.35
2019-03-06T15:31:36.073Z,59.83
2019-03-06T15:34:05.659Z,59.57
2019-03-06T15:36:35.607Z,59.67
2019-03-06T15:42:24.108Z,59.37
2019-03-06T15:44:53.733Z,59.35
2019-03-06T15:47:23.167Z,59.55
2019-03-06T15:49:52.977Z,59.64
2019-03-06T15:52:22.618Z,60.04
2019-03-06T15:54:52.845Z,60.42
2019-03-06T15:57:22.930Z,60.52
2019-03-06T15:59:52.278Z,61.01
2019-03-06T16:02:21.960Z,61.29
2019-03-06T16:04:51.615Z,61.61
2019-03-06T16:07:31.057Z,62.60
2019-03-06T16:10:00.585Z,62.80
2019-03-06T16:12:30.342Z,62.24
2019-03-06T16:14:59.777Z,62.92
2019-03-06T16:17:29.225Z,62.34
2019-03-06T16:20:28.098Z,62.70
2019-03-06T16:22:57.794Z,62.38
2019-03-06T16:25:36.128Z,62.69
2019-03-06T16:28:03.948Z,62.68
2019-03-06T16:30:34.006Z,63.18
2019-03-06T16:35:59.093Z,64.98
2019-03-06T16:38:28.771Z,65.96
2019-03-06T16:40:58.120Z,66.37
2019-03-06T16:43:27.792Z,66.21
2019-03-06T16:45:57.211Z,67.07
2019-03-06T16:48:27.290Z,67.84
2019-03-06T16:50:56.950Z,68.31
2019-03-06T16:53:26.611Z,69.17
2019-03-06T16:55:56.348Z,69.50
2019-03-06T16:58:26.342Z,70.36
2019-03-06T17:03:55.770Z,71.47
2019-03-06T17:06:25.125Z,71.47
2019-03-06T17:08:54.819Z,71.53
2019-03-06T17:11:35.052Z,71.53
2019-03-06T17:17:39.008Z,71.94
2019-03-06T17:20:39.176Z,72.01
2019-03-06T17:23:08.865Z,71.73
2019-03-06T17:25:38.530Z,72.07
2019-03-06T17:28:08.061Z,72.29
2019-03-06T17:34:00.065Z,71.39
2019-03-06T17:36:29.429Z,71.35
2019-03-06T17:38:59.038Z,71.17
2019-03-06T17:41:28.469Z,70.06
2019-03-06T17:43:57.949Z,69.54
2019-03-06T17:46:27.317Z,70.01
2019-03-06T17:48:56.739Z,69.60
2019-03-06T17:51:36.233Z,68.32
2019-03-06T17:54:17.503Z,67.87
2019-03-06T17:56:59.351Z,67.98
2019-03-06T17:59:29.055Z,67.58
2019-03-06T18:01:58.763Z,67.55
2019-03-06T18:07:09.228Z,66.91
2019-03-06T18:09:38.619Z,66.64
2019-03-06T18:12:08.124Z,66.97
2019-03-06T18:14:37.494Z,66.02
2019-03-06T18:17:07.124Z,66.06
2019-03-06T18:19:36.811Z,65.26
2019-03-06T18:22:06.286Z,65.48
2019-03-06T18:24:35.688Z,64.38
2019-03-06T18:27:06.724Z,64.12
2019-03-06T18:29:36.182Z,64.22
2019-03-06T18:32:05.551Z,64.72
2019-03-06T18:34:35.741Z,65.20
2019-03-06T18:37:05.310Z,64.92
2019-03-06T18:39:41.807Z,65.27
2019-03-06T18:42:11.255Z,65.19
2019-03-06T18:44:40.598Z,64.87
2019-03-06T18:47:10.648Z,64.85
2019-03-06T18:49:40.172Z,65.02
2019-03-06T18:52:09.561Z,65.25
2019-03-06T18:54:38.934Z,65.43
2019-03-06T18:57:08.549Z,65.58
2019-03-06T18:59:38.191Z,65.27
2019-03-06T19:02:07.585Z,65.27
2019-03-06T19:04:38.586Z,66.25
2019-03-06T19:07:08.302Z,66.21
2019-03-06T19:09:37.693Z,66.42
2019-03-06T19:12:07.419Z,66.39
2019-03-06T19:14:37.012Z,66.55
2019-03-06T19:17:06.397Z,66.29
2019-03-06T19:19:35.781Z,66.19
2019-03-06T19:22:25.923Z,66.12
2019-03-06T19:24:55.570Z,65.68
2019-03-06T19:27:24.928Z,66.01
2019-03-06T19:29:54.487Z,66.02
2019-03-06T19:32:24.402Z,66.33
2019-03-06T19:34:53.762Z,66.48
2019-03-06T19:37:35.412Z,66.64
2019-03-06T19:43:25.662Z,66.93
2019-03-06T19:45:55.042Z,67.04
2019-03-06T19:48:24.701Z,67.25
2019-03-06T19:51:06.253Z,68.64
2019-03-06T19:53:35.899Z,68.64
2019-03-06T19:56:05.935Z,68.84
2019-03-06T19:58:35.834Z,69.29
2019-03-06T20:01:05.565Z,69.42
2019-03-06T20:03:34.919Z,69.68
2019-03-06T20:06:36.339Z,70.09
2019-03-06T20:12:25.846Z,70.23
2019-03-06T20:15:02.882Z,70.35
2019-03-06T20:17:33.901Z,70.66
2019-03-06T20:23:03.862Z,71.06
2019-03-06T20:25:33.545Z,71.19
2019-03-06T20:28:03.152Z,71.53
2019-03-06T20:30:32.865Z,71.39
2019-03-06T20:33:02.516Z,71.31
2019-03-06T20:35:50.985Z,71.42
2019-03-06T20:38:20.643Z,71.14
2019-03-06T20:40:49.999Z,71.40
2019-03-06T20:43:20.899Z,71.68
2019-03-06T20:45:50.590Z,71.50
2019-03-06T20:48:40.776Z,71.97
2019-03-06T20:51:10.122Z,71.90
2019-03-06T20:53:39.760Z,72.15
2019-03-06T20:56:09.105Z,72.37
2019-03-06T20:58:38.652Z,72.10
2019-03-06T21:01:08.031Z,72.53
2019-03-06T21:03:38.001Z,72.43
2019-03-06T21:06:07.384Z,72.36
2019-03-06T21:08:36.857Z,72.43
2019-03-06T21:11:06.256Z,72.44
2019-03-06T21:13:35.894Z,72.91
2019-03-06T21:16:05.285Z,72.91
2019-03-06T21:18:35.788Z,72.95
2019-03-06T21:21:05.167Z,73.01
2019-03-06T21:23:34.817Z,72.92
2019-03-06T21:26:04.519Z,72.92
2019-03-06T21:28:35.790Z,72.76
2019-03-06T21:31:05.150Z,72.77
2019-03-06T21:33:55.318Z,72.74
2019-03-06T21:36:24.969Z,72.85
2019-03-06T21:39:06.943Z,72.95
2019-03-06T21:41:38.341Z,72.95
2019-03-06T21:44:07.904Z,73.11
2019-03-06T21:46:49.542Z,73.35
2019-03-06T21:49:32.639Z,73.58
2019-03-06T21:52:14.138Z,73.83
2019-03-06T21:54:55.429Z,73.88
2019-03-06T21:57:36.569Z,74.23
2019-03-06T22:03:40.962Z,74.70
2019-03-06T22:06:10.330Z,75.18
2019-03-06T22:08:40.030Z,75.45
2019-03-06T22:11:09.374Z,75.75
2019-03-06T22:13:39.028Z,76.14
2019-03-06T22:16:08.556Z,76.57
2019-03-06T22:22:12.428Z,77.47
2019-03-06T22:24:42.100Z,78.16
2019-03-06T22:27:11.469Z,78.68
2019-03-06T22:29:41.071Z,79.01
2019-03-06T22:32:17.961Z,79.29
2019-03-06T22:34:47.363Z,79.58
2019-03-06T22:37:17.016Z,80.00
2019-03-06T22:39:46.365Z,80.19
2019-03-06T22:42:16.272Z,80.29
2019-03-06T22:44:45.638Z,80.67
2019-03-06T22:47:15.283Z,80.85
2019-03-06T22:49:44.644Z,81.07
2019-03-06T22:52:14.463Z,81.18
2019-03-06T22:54:44.172Z,81.34
2019-03-06T22:57:13.553Z,81.72
2019-03-06T22:59:43.145Z,81.85
2019-03-06T23:02:12.836Z,81.98
2019-03-06T23:04:42.281Z,81.89
2019-03-06T23:07:11.648Z,82.06
2019-03-06T23:09:41.338Z,82.28
2019-03-06T23:12:10.716Z,82.38
2019-03-06T23:14:40.138Z,82.70
2019-03-06T23:17:11.672Z,82.86
2019-03-06T23:19:41.300Z,83.09
2019-03-06T23:25:25.776Z,83.28
2019-03-06T23:27:55.270Z,83.59
2019-03-06T23:30:56.856Z,84.03
2019-03-06T23:33:27.486Z,84.07
2019-03-06T23:35:56.843Z,84.11
2019-03-06T23:38:26.772Z,84.17
2019-03-06T23:40:56.333Z,84.03
2019-03-06T23:43:25.687Z,84.10
2019-03-06T23:45:55.273Z,83.91
2019-03-06T23:48:34.953Z,83.81
2019-03-06T23:54:01.998Z,83.61
2019-03-06T23:56:31.645Z,83.53
2019-03-06T23:59:01.637Z,83.07
